• Join FlightAware (Why Join?)
  • Login
  • US Flag 
06:29PM EDT


 

Airport Tracker/Info


-or-


 

Live Flight TrackerFlight Track Log ✈ UAL1169 ✈ 15-May-2013 ✈ KJFK - KLAX

Flight Track Log - Related Links

Times and Time Zones

All times are in EDT time to prevent confusion due to time zone crossing. See the UAL1169 flight status page for this flight to view local times or setup timezone preferences in your user account.

Time Position Orientation Groundspeed Altitude Reporting Facility
EDT Latitude Longitude Course Direction KTS MPH feet Rate Location/Type
06:22AM 40.5833 -73.7667 217° Southwest 186 214 2,400  Level New York TRACON
06:23AM 40.5333 -73.7833 194° South 249 287 4,700 2,520 Climbing New York TRACON
06:24AM 40.4167 -74.1168 232° Southwest  Level FlightAware Approximate
06:24AM 40.4667 -73.8167 201° Southwest 257 296 7,500  Level New York TRACON
06:25AM 40.3453 -74.2356 232° Southwest  Level FlightAware Approximate
06:25AM 40.4167 -73.9000 232° Southwest 267 307 10,400  Level New York TRACON
06:26AM 40.2741 -74.3544 232° Southwest  Level FlightAware Approximate
06:26AM 40.3833 -74.0000 246° West 311 358 12,200  Level New York TRACON
06:27AM 40.2016 -74.4650 217° Southwest  Level FlightAware Approximate
06:27AM 40.3683 -74.0481 248° West 332 382 13,300  Level New York Center
06:28AM 40.3183 -74.1844 244° Southwest 351 404 15,900 1,800 Climbing New York Center
06:29AM 40.2822 -74.2833 244° Southwest 391 450 17,000 660 Climbing New York Center
06:30AM 40.2344 -74.4114 244° Southwest 385 443 17,300 1,020 Climbing New York Center
06:31AM 40.2019 -74.5239 249° West 368 423 19,100 1,920 Climbing New York Center
06:32AM 40.1933 -74.6567 265° West 363 418 21,200 2,160 Climbing New York Center
06:33AM 40.1806 -74.7889 263° West 368 423 23,400 2,040 Climbing New York Center
06:34AM 40.1717 -74.9244 265° West 373 429 25,300 1,920 Climbing New York Center
06:35AM 40.1583 -75.0619 263° West 378 435 27,400 1,860 Climbing New York Center
06:36AM 40.1492 -75.2028 265° West 388 447 29,100 1,440 Climbing New York Center
06:37AM 40.1417 -75.3433 266° West 388 447 30,300 1,200 Climbing New York Center
06:38AM 40.1400 -75.4872 269° West 394 453 31,500 1,620 Climbing New York Center
06:39AM 40.1425 -75.6314 271° West 394 453 33,600 1,740 Climbing New York Center
06:40AM 40.1408 -75.7725 269° West 394 453 35,100 1,140 Climbing New York Center
06:41AM 40.1414 -75.9083 270° West 394 453 36,000 420 Climbing New York Center
06:42AM 40.1414 -76.0467 270° West 388 447 36,000  Level New York Center
06:43AM 40.1394 -76.1825 269° West 382 440 36,000  Level New York Center
06:44AM 40.1347 -76.3314 268° West 382 440 36,000  Level New York Center
06:45AM 40.1319 -76.4725 269° West 382 440 36,000  Level New York Center
06:46AM 40.1336 -76.6111 271° West 382 440 36,000  Level New York Center
06:47AM 40.1308 -76.7519 269° West 382 440 36,000  Level New York Center
06:48AM 40.1300 -76.8878 270° West 382 440 36,000  Level New York Center
06:49AM 40.1289 -77.0289 269° West 382 440 36,000  Level New York Center
06:50AM 40.1256 -77.1697 268° West 382 440 36,000  Level New York Center
06:51AM 40.1242 -77.3081 269° West 387 445 36,000  Level New York Center
06:53AM 40.1247 -77.5528 270° West 371 427 36,000  Level Cleveland Center
06:54AM 40.1222 -77.6914 269° West 371 427 36,000  Level Cleveland Center
06:55AM 40.1194 -77.8300 269° West 382 440 36,000  Level Cleveland Center
06:56AM 40.1122 -77.9689 266° West 390 449 36,000  Level Cleveland Center
06:57AM 40.1092 -78.1100 268° West 390 449 36,000  Level Cleveland Center
06:58AM 40.1058 -78.2486 268° West 385 443 36,000  Level Cleveland Center
06:59AM 40.1022 -78.3872 268° West 385 443 36,000  Level Cleveland Center
07:00AM 40.0986 -78.5286 268° West 385 443 36,000  Level Cleveland Center
07:01AM 40.0947 -78.6669 268° West 385 443 36,000  Level Cleveland Center
07:02AM 40.0908 -78.8056 268° West 385 443 36,000  Level Cleveland Center
07:03AM 40.0867 -78.9494 268° West 385 443 36,000  Level Cleveland Center
07:04AM 40.0825 -79.0881 268° West 385 443 36,000  Level Cleveland Center
07:05AM 40.0781 -79.2319 268° West 385 443 36,000  Level Cleveland Center
07:06AM 40.0756 -79.3867 269° West 385 443 36,000  Level Cleveland Center
07:07AM 40.0706 -79.5306 267° West 390 449 36,000  Level Cleveland Center
07:08AM 40.0656 -79.6744 267° West 395 455 36,000  Level Cleveland Center
07:09AM 40.0606 -79.8156 267° West 401 461 36,000  Level Cleveland Center
07:10AM 40.0531 -79.9592 266° West 401 461 36,000  Level Cleveland Center
07:11AM 40.0517 -80.1003 269° West 401 461 36,000  Level Cleveland Center
07:12AM 40.0436 -80.2442 266° West 401 461 36,000  Level Cleveland Center
07:13AM 40.0378 -80.3878 267° West 401 461 36,000  Level Cleveland Center
07:14AM 40.0317 -80.5317 267° West 401 461 36,000  Level Cleveland Center
07:15AM 40.0275 -80.6725 268° West 401 461 36,000  Level Cleveland Center
07:17AM 40.0139 -80.9939 267° West 397 457 36,000  Level Indianapolis Center
07:18AM 40.0133 -81.1383 270° West 394 453 36,000  Level Indianapolis Center
07:19AM 40.0103 -81.2853 268° West 398 458 36,000  Level Indianapolis Center
07:20AM 40.0075 -81.4322 269° West 399 459 36,000  Level Indianapolis Center
07:21AM 40.0033 -81.5803 268° West 404 465 36,000  Level Indianapolis Center
07:22AM 40.0011 -81.7261 269° West 400 460 36,000  Level Indianapolis Center
07:23AM 39.9978 -81.8700 268° West 398 458 36,000  Level Indianapolis Center
07:24AM 39.9956 -82.0175 269° West 403 464 36,000  Level Indianapolis Center
07:25AM 39.9925 -82.1678 269° West 411 473 36,000  Level Indianapolis Center
07:26AM 39.9883 -82.3400 268° West 405 466 36,000  Level Indianapolis Center
07:27AM 39.9831 -82.4858 267° West 399 459 36,000  Level Indianapolis Center
07:28AM 39.9783 -82.6344 268° West 406 467 36,000  Level Indianapolis Center
07:29AM 39.9753 -82.7819 268° West 404 465 36,000  Level Indianapolis Center
07:30AM 39.9697 -82.9292 267° West 405 466 36,000  Level Indianapolis Center
07:31AM 39.9647 -83.0769 268° West 406 467 36,000  Level Indianapolis Center
07:32AM 39.9628 -83.2247 269° West 407 468 36,000  Level Indianapolis Center
07:33AM 39.9578 -83.3714 268° West 405 466 36,000  Level Indianapolis Center
07:34AM 39.9531 -83.5167 268° West 406 467 36,000  Level Indianapolis Center
07:35AM 39.9453 -83.6869 267° West 407 468 36,000  Level Indianapolis Center
07:36AM 39.9403 -83.8344 268° West 407 468 36,000  Level Indianapolis Center
07:37AM 39.9342 -83.9825 267° West 408 470 36,000  Level Indianapolis Center
07:38AM 39.9286 -84.1311 267° West 409 471 36,000  Level Indianapolis Center
07:39AM 39.9222 -84.2803 267° West 409 471 36,000  Level Indianapolis Center
07:41AM 39.9158 -84.4314 267° West 414 476 36,000  Level Indianapolis Center
07:42AM 39.9086 -84.5814 266° West 413 475 36,000  Level Indianapolis Center
07:43AM 39.9017 -84.7311 267° West 411 473 36,000  Level Indianapolis Center
07:44AM 39.8950 -84.8806 267° West 410 472 36,000  Level Indianapolis Center
07:45AM 39.8869 -85.0569 267° West 414 476 36,000  Level Indianapolis Center
07:46AM 39.8789 -85.2067 266° West 416 479 36,000  Level Indianapolis Center
07:47AM 39.8722 -85.3553 267° West 414 476 36,000  Level Indianapolis Center
07:48AM 39.8700 -85.5075 269° West 420 483 36,000  Level Indianapolis Center
07:49AM 39.8672 -85.6583 269° West 420 483 36,000  Level Indianapolis Center
07:50AM 39.8633 -85.8103 268° West 422 486 36,000  Level Indianapolis Center
07:51AM 39.8592 -85.9614 268° West 422 486 36,000  Level Indianapolis Center
07:52AM 39.8544 -86.1425 268° West 422 486 36,000  Level Indianapolis Center
07:53AM 39.8506 -86.2819 268° West 424 488 36,000  Level Indianapolis Center
07:54AM 39.8456 -86.4383 268° West 422 486 36,000  Level Indianapolis Center
07:55AM 39.8403 -86.5878 267° West 418 481 36,000  Level Indianapolis Center
07:56AM 39.8342 -86.7681 268° West 419 482 36,000  Level Indianapolis Center
07:57AM 39.8294 -86.9203 268° West 423 487 36,000  Level Indianapolis Center
07:58AM 39.8233 -87.0708 267° West 421 484 36,000  Level Indianapolis Center
07:59AM 39.8178 -87.2236 267° West 424 488 36,000  Level Indianapolis Center
08:00AM 39.8133 -87.3767 268° West 425 489 36,000  Level Indianapolis Center
08:01AM 39.8061 -87.5294 267° West 426 490 36,000  Level Indianapolis Center
08:02AM 39.7975 -87.7144 267° West 428 493 36,000  Level Indianapolis Center
08:03AM 39.7908 -87.8692 267° West 430 495 36,000  Level Indianapolis Center
08:04AM 39.7842 -88.0239 267° West 431 496 36,000  Level Indianapolis Center
08:05AM 39.7767 -88.1783 266° West 430 495 36,000  Level Indianapolis Center
08:06AM 39.7750 -88.2297 268° West 430 495 36,000  Level Kansas City Center
08:07AM 39.7675 -88.3850 266° West 431 496 36,000  Level Kansas City Center
08:08AM 39.7600 -88.5400 266° West 430 495 36,000  Level Kansas City Center
08:09AM 39.7517 -88.6989 266° West 435 501 36,000  Level Kansas City Center
08:10AM 39.7436 -88.8556 266° West 435 501 36,000  Level Kansas City Center
08:11AM 39.7336 -89.0425 266° West 433 498 36,000  Level Kansas City Center
08:12AM 39.7250 -89.2022 266° West 439 505 36,000  Level Kansas City Center
08:13AM 39.7161 -89.3600 266° West 438 504 36,000  Level Kansas City Center
08:14AM 39.7069 -89.5181 266° West 438 504 36,000  Level Kansas City Center
08:15AM 39.6986 -89.6603 266° West 438 504 36,000  Level Kansas City Center
08:16AM 39.6894 -89.8186 266° West 442 509 36,000  Level Kansas City Center
08:17AM 39.6781 -90.0078 266° West 441 507 36,000  Level Kansas City Center
08:18AM 39.6681 -90.1661 265° West 442 509 36,000  Level Kansas City Center
08:19AM 39.6578 -90.3256 265° West 444 511 36,000  Level Kansas City Center
08:20AM 39.6475 -90.4844 265° West 445 512 36,000  Level Kansas City Center
08:21AM 39.6375 -90.6414 265° West 442 509 36,000  Level Kansas City Center
08:22AM 39.6261 -90.7989 265° West 441 507 36,000  Level Kansas City Center
08:23AM 39.6161 -90.9575 265° West 443 510 36,000  Level Kansas City Center
08:24AM 39.6017 -91.1447 264° West 440 506 36,000  Level Kansas City Center
08:25AM 39.5906 -91.3014 265° West 439 505 36,000  Level Kansas City Center
08:26AM 39.5789 -91.4411 264° West 444 511 36,000  Level Kansas City Center
08:27AM 39.5656 -91.6292 265° West 443 510 36,000  Level Kansas City Center
08:28AM 39.5522 -91.7875 264° West 442 509 36,000  Level Kansas City Center
08:29AM 39.5406 -91.9461 265° West 443 510 36,000  Level Kansas City Center
08:30AM 39.5286 -92.1031 264° West 443 510 36,000  Level Kansas City Center
08:31AM 39.5161 -92.2592 264° West 440 506 36,000  Level Kansas City Center
08:32AM 39.5031 -92.4186 264° West 444 511 36,000  Level Kansas City Center
08:33AM 39.4886 -92.5767 263° West 445 512 36,000  Level Kansas City Center
08:34AM 39.4728 -92.7678 264° West 445 512 36,000  Level Kansas City Center
08:35AM 39.4589 -92.9258 264° West 446 513 36,000  Level Kansas City Center
08:36AM 39.4444 -93.0839 263° West 445 512 36,000  Level Kansas City Center
08:37AM 39.4297 -93.2406 263° West 444 511 36,000  Level Kansas City Center
08:38AM 39.4150 -93.4000 263° West 447 514 36,000  Level Kansas City Center
08:39AM 39.4011 -93.5614 264° West 451 519 36,000  Level Kansas City Center
08:40AM 39.3833 -93.7483 263° West 446 513 36,000  Level Kansas City Center
08:41AM 39.3692 -93.9006 263° West 447 514 36,000  Level Kansas City Center
08:42AM 39.3544 -94.0528 263° West 445 512 36,000  Level Kansas City Center
08:43AM 39.3369 -94.2317 263° West 449 517 36,000  Level Kansas City Center
08:44AM 39.3214 -94.3839 263° West 447 514 36,000  Level Kansas City Center
08:45AM 39.3036 -94.5625 263° West 448 516 36,000  Level Kansas City Center
08:47AM 39.2883 -94.7169 263° West 451 519 36,000  Level Kansas City Center
08:48AM 39.2669 -94.8958 261° West 453 521 36,000  Level Kansas City Center
08:49AM 39.2494 -95.0514 262° West 454 522 36,000  Level Kansas City Center
08:50AM 39.2286 -95.2331 262° West 458 527 36,000  Level Kansas City Center
08:51AM 39.2106 -95.3928 262° West 453 521 36,000  Level Kansas City Center
08:52AM 39.1908 -95.5542 261° West 455 524 36,000  Level Kansas City Center
08:53AM 39.1719 -95.7069 261° West 452 520 36,000  Level Kansas City Center
08:54AM 39.1503 -95.8864 261° West 455 524 36,000  Level Kansas City Center
08:55AM 39.1317 -96.0406 261° West 455 524 36,000  Level Kansas City Center
08:56AM 39.1089 -96.2200 261° West 454 522 36,000  Level Kansas City Center
08:57AM 39.0894 -96.3744 261° West 456 525 36,000  Level Kansas City Center
08:58AM 39.0700 -96.5281 261° West 455 524 36,000  Level Kansas City Center
08:59AM 39.0456 -96.7069 260° West 456 525 36,000  Level Kansas City Center
09:00AM 39.0264 -96.8603 261° West 454 522 36,000  Level Kansas City Center
09:01AM 39.0022 -97.0397 260° West 456 525 36,000  Level Kansas City Center
09:02AM 38.9839 -97.1944 261° West 456 525 36,000  Level Kansas City Center
09:03AM 38.9586 -97.3775 260° West 459 528 36,000  Level Kansas City Center
09:04AM 38.9383 -97.5275 260° West 456 525 36,000  Level Kansas City Center
09:05AM 38.9131 -97.7078 260° West 457 526 36,000  Level Kansas City Center
09:06AM 38.8961 -97.8575 262° West 458 527 36,000  Level Kansas City Center
09:07AM 38.8750 -98.0394 262° West 459 528 36,000  Level Kansas City Center
09:08AM 38.8533 -98.2075 261° West 459 528 36,000  Level Kansas City Center
09:09AM 38.8322 -98.3758 261° West 457 526 36,000  Level Kansas City Center
09:10AM 38.8128 -98.5308 261° West 458 527 36,000  Level Kansas City Center
09:11AM 38.7900 -98.6997 260° West 461 531 36,000  Level Kansas City Center
09:12AM 38.7694 -98.8669 261° West 458 527 36,000  Level Kansas City Center
09:13AM 38.7456 -99.0339 260° West 455 524 36,000  Level Kansas City Center
09:14AM 38.7228 -99.2017 260° West 457 526 36,000  Level Kansas City Center
09:15AM 38.7011 -99.3592 260° West 459 528 36,000  Level Kansas City Center
09:16AM 38.6944 -99.4108 261° West 460 529 36,000  Level Denver Center
09:17AM 38.6700 -99.5908 260° West 460 529 36,000  Level Denver Center
09:18AM 38.6486 -99.7458 260° West 463 533 36,000  Level Denver Center
09:19AM 38.6225 -99.9258 260° West 462 532 36,000  Level Denver Center
09:20AM 38.6011 -100.0819 260° West 465 535 36,000  Level Denver Center
09:21AM 38.5789 -100.2389 260° West 470 541 36,000  Level Denver Center
09:22AM 38.5531 -100.4183 260° West 464 534 36,000  Level Denver Center
09:23AM 38.5297 -100.5728 259° West 464 534 36,000  Level Denver Center
09:24AM 38.5064 -100.7269 259° West 464 534 36,000  Level Denver Center
09:25AM 38.4800 -100.9075 259° West 465 535 36,000  Level Denver Center
09:26AM 38.4561 -101.0597 259° West 461 531 36,000  Level Denver Center
09:27AM 38.4289 -101.2383 259° West 460 529 36,000  Level Denver Center
09:28AM 38.4050 -101.3911 259° West 460 529 36,000  Level Denver Center
09:29AM 38.3819 -101.5444 259° West 462 532 36,000  Level Denver Center
09:30AM 38.3528 -101.7225 258° West 463 533 36,000 480 Level Denver Center
09:31AM 38.3294 -101.8753 259° West 462 532 37,000 960 Climbing Denver Center
09:32AM 38.3003 -102.0547 258° West 465 535 38,000 480 Climbing Denver Center
09:33AM 38.2758 -102.2081 259° West 466 536 38,000  Level Denver Center
09:34AM 38.2503 -102.3600 258° West 460 529 38,000  Level Denver Center
09:35AM 38.2222 -102.5375 259° West 460 529 38,000  Level Denver Center
09:36AM 38.1956 -102.6897 257° West 463 533 38,000  Level Denver Center
09:37AM 38.1575 -102.8411 252° West 471 542 38,000  Level Denver Center
09:38AM 38.1122 -103.0175 252° West 473 544 38,000  Level Denver Center
09:39AM 38.0736 -103.1656 252° West 471 542 38,000  Level Denver Center
09:40AM 38.0286 -103.3389 252° West 466 536 38,000  Level Denver Center
09:41AM 37.9889 -103.4886 251° West 467 537 38,000  Level Denver Center
09:42AM 37.9511 -103.6361 252° West 464 534 38,000  Level Denver Center
09:43AM 37.9047 -103.8078 251° West 463 533 38,000  Level Denver Center
09:44AM 37.8664 -103.9536 252° West 461 531 38,000  Level Denver Center
09:45AM 37.8206 -104.1233 251° West 462 532 38,000  Level Denver Center
09:46AM 37.7814 -104.2681 251° West 461 531 38,000  Level Denver Center
09:47AM 37.7358 -104.4372 251° West 460 529 38,000  Level Denver Center
09:48AM 37.6956 -104.5825 251° West 460 529 38,000  Level Denver Center
09:49AM 37.6553 -104.7281 251° West 459 528 38,000  Level Denver Center
09:50AM 37.6072 -104.8981 250° West 462 532 38,000  Level Denver Center
09:51AM 37.5681 -105.0433 251° West 459 528 38,000  Level Denver Center
09:52AM 37.5217 -105.2044 250° West 463 533 38,000  Level Denver Center
09:53AM 37.4806 -105.3492 250° West 462 532 38,000  Level Denver Center
09:54AM 37.4339 -105.5200 251° West 461 531 38,000  Level Denver Center
09:55AM 37.3919 -105.6656 250° West 463 533 38,000  Level Denver Center
09:56AM 37.3422 -105.8336 250° West 460 529 38,000  Level Denver Center
09:58AM 37.3069 -105.9817 253° West 462 532 38,000  Level Denver Center
09:59AM 37.2697 -106.1275 252° West 460 529 38,000  Level Denver Center
10:00AM 37.2275 -106.2981 253° West 459 528 38,000  Level Denver Center
10:01AM 37.1883 -106.4419 251° West 456 525 38,000  Level Denver Center
10:02AM 37.1450 -106.6111 252° West 457 526 38,000  Level Denver Center
10:03AM 37.1081 -106.7564 252° West 457 526 38,000  Level Denver Center
10:04AM 37.0706 -106.9000 252° West 455 524 38,000  Level Denver Center
10:05AM 37.0261 -107.0689 252° West 457 526 38,000  Level Denver Center
10:06AM 36.9881 -107.2114 252° West 453 521 38,000  Level Denver Center
10:07AM 36.9431 -107.3783 251° West 453 521 38,000  Level Denver Center
10:08AM 36.9053 -107.5178 251° West 446 513 38,000  Level Denver Center
10:09AM 36.8678 -107.6586 252° West 445 512 38,000  Level Denver Center
10:10AM 36.8244 -107.8203 252° West 441 507 38,000  Level Denver Center
10:11AM 36.7872 -107.9586 251° West 440 506 38,000  Level Denver Center
10:12AM 36.7447 -108.1167 251° West 433 498 38,000  Level Denver Center
10:13AM 36.7192 -108.2564 257° West 432 497 38,000  Level Denver Center
10:14AM 36.6897 -108.4167 257° West 429 494 38,000  Level Denver Center
10:15AM 36.6639 -108.5547 257° West 428 493 38,000  Level Denver Center
10:16AM 36.6383 -108.6919 257° West 427 491 38,000  Level Denver Center
10:17AM 36.6083 -108.8500 257° West 423 487 38,000  Level Denver Center
10:18AM 36.5828 -108.9858 257° West 423 487 38,000  Level Denver Center
10:19AM 36.5519 -109.1431 256° West 422 486 38,000  Level Denver Center
10:20AM 36.5264 -109.2781 257° West 421 484 38,000  Level Denver Center
10:21AM 36.4953 -109.4353 256° West 423 487 38,000  Level Denver Center
10:22AM 36.4683 -109.5703 256° West 422 486 38,000  Level Denver Center
10:23AM 36.4375 -109.7283 256° West 424 488 38,000  Level Denver Center
10:24AM 36.4108 -109.8658 256° West 429 494 38,000  Level Denver Center
10:25AM 36.3800 -110.0253 257° West 427 491 38,000  Level Denver Center
10:26AM 36.3497 -110.1742 256° West 431 496 38,000  Level Denver Center
10:27AM 36.3203 -110.3169 256° West 429 494 38,000  Level Denver Center
10:28AM 36.2911 -110.4594 256° West 428 493 38,000  Level Denver Center
10:29AM 36.2606 -110.6011 255° West 426 490 38,000  Level Denver Center
10:30AM 36.2322 -110.7419 256° West 425 489 38,000  Level Denver Center
10:31AM 36.2028 -110.8822 255° West 422 486 38,000  Level Denver Center
10:32AM 36.1750 -111.0225 256° West 420 483 38,000  Level Denver Center
10:33AM 36.1381 -111.1911 255° West 422 486 38,000  Level Denver Center
10:34AM 36.1086 -111.3325 256° West 423 487 38,000  Level Denver Center
10:36AM 36.0794 -111.4719 256° West 421 484 38,000  Level Denver Center
10:37AM 36.0500 -111.6106 255° West 418 481 38,000  Level Denver Center
10:38AM 36.0208 -111.7503 256° West 419 482 38,000  Level Denver Center
10:39AM 35.9908 -111.8886 255° West 418 481 38,000  Level Denver Center
10:39AM 35.9736 -111.9653 255° West 418 481 38,000  Level Los Angeles Center
10:40AM 35.9444 -112.1014 255° West 416 479 38,000  Level Los Angeles Center
10:41AM 35.9092 -112.2667 255° West 418 481 38,000  Level Los Angeles Center
10:42AM 35.8786 -112.4044 255° West 420 483 38,000  Level Los Angeles Center
10:43AM 35.8494 -112.5414 255° West 419 482 38,000  Level Los Angeles Center
10:44AM 35.8189 -112.6792 255° West 419 482 38,000  Level Los Angeles Center
10:45AM 35.7886 -112.8150 255° West 417 480 38,000  Level Los Angeles Center
10:46AM 35.7531 -112.9767 255° West 414 476 38,000  Level Los Angeles Center
10:47AM 35.7233 -113.1097 255° West 410 472 38,000  Level Los Angeles Center
10:48AM 35.6928 -113.2436 254° West 411 473 38,000 -60 Level Los Angeles Center
10:49AM 35.6633 -113.3775 255° West 411 473 37,900 -780 Descending Los Angeles Center
10:50AM 35.6328 -113.5106 254° West 410 472 36,500 -960 Descending Los Angeles Center
10:52AM 35.5781 -113.6617 246° West 411 473 36,000 -300 Descending Los Angeles Center
10:53AM 35.5258 -113.7883 243° Southwest 416 479 36,000  Level Los Angeles Center
10:54AM 35.4736 -113.9156 243° Southwest 420 483 36,000  Level Los Angeles Center
10:55AM 35.4183 -114.0517 244° Southwest 418 481 36,000  Level Los Angeles Center
10:56AM 35.3650 -114.1825 243° Southwest 427 491 36,000  Level Los Angeles Center
10:57AM 35.3125 -114.3114 244° Southwest 424 488 36,000  Level Los Angeles Center
10:58AM 35.2583 -114.4422 243° Southwest 429 494 36,000  Level Los Angeles Center
10:59AM 35.1933 -114.5975 243° Southwest 428 493 36,000  Level Los Angeles Center
11:00AM 35.1381 -114.7283 243° Southwest 431 496 36,000  Level Los Angeles Center
11:01AM 35.0850 -114.8575 243° Southwest 426 490 36,000  Level Los Angeles Center
11:02AM 35.0303 -114.9858 243° Southwest 425 489 36,000  Level Los Angeles Center
11:03AM 34.9753 -115.1167 243° Southwest 431 496 36,000  Level Los Angeles Center
11:04AM 34.9214 -115.2456 243° Southwest 428 493 36,000  Level Los Angeles Center
11:05AM 34.8564 -115.3933 242° Southwest 417 480 36,000  Level Los Angeles Center
11:06AM 34.8019 -115.5211 243° Southwest 421 484 36,000  Level Los Angeles Center
11:07AM 34.7481 -115.6508 243° Southwest 426 490 36,000  Level Los Angeles Center
11:08AM 34.6828 -115.8011 242° Southwest 421 484 36,000  Level Los Angeles Center
11:09AM 34.6283 -115.9269 242° Southwest 420 483 36,000  Level Los Angeles Center
11:10AM 34.5736 -116.0517 242° Southwest 420 483 36,000 -720 Level Los Angeles Center
11:11AM 34.5175 -116.1831 243° Southwest 428 493 34,600 -1,500 Descending Los Angeles Center
11:12AM 34.4494 -116.3375 242° Southwest 437 503 32,900 -1,800 Descending Los Angeles Center
11:13AM 34.3939 -116.4639 242° Southwest 430 495 30,900 -1,920 Descending Los Angeles Center
11:14AM 34.3394 -116.5883 242° Southwest 422 486 28,900 -2,040 Descending Los Angeles Center
11:16AM 34.2858 -116.7081 242° Southwest 413 475 26,700 -1,980 Descending Los Angeles Center
11:17AM 34.2358 -116.8200 242° Southwest 394 453 24,900 -2,040 Descending Los Angeles Center
11:18AM 34.1928 -116.9178 242° Southwest 352 405 22,600 -2,280 Descending Los Angeles Center
11:19AM 34.1419 -117.0311 242° Southwest 326 375 20,200 -2,040 Descending Los Angeles Center
11:20AM 34.0972 -117.1303 241° Southwest 325 374 18,500 -1,620 Descending Los Angeles Center
11:20AM 34.0833 -117.1667 245° Southwest 324 373 18,100 -1,380 Descending Southern California TRACON
11:21AM 34.0500 -117.2500 244° Southwest 312 359 16,900 -1,320 Descending Southern California TRACON
11:22AM 34.0333 -117.3500 259° West 291 335 15,600 -1,440 Descending Southern California TRACON
11:23AM 34.0333 -117.4500 270° West 291 335 14,100 -1,560 Descending Southern California TRACON
11:24AM 34.0167 -117.5333 256° West 300 345 12,700 -1,620 Descending Southern California TRACON
11:25AM 34.0167 -117.6333 270° West 296 341 10,900 -1,440 Descending Southern California TRACON
11:26AM 34.0000 -117.7333 259° West 288 331 9,900 -1,200 Descending Southern California TRACON
11:27AM 34.0000 -117.8167 270° West 264 304 8,700 -1,380 Descending Southern California TRACON
11:28AM 33.9833 -117.8833 253° West 259 298 7,300 -1,380 Descending Southern California TRACON
11:29AM 33.9833 -117.9667 270° West 247 284 6,100 -1,080 Descending Southern California TRACON
11:30AM 33.9667 -118.0667 259° West 224 258 5,100 -900 Descending Southern California TRACON
11:31AM 33.9667 -118.1167 270° West 211 243 4,300 -900 Descending Southern California TRACON
11:31AM 33.9603 -118.1564 259° West 217 250 3,800 -900 Descending Los Angeles Center